Terminal Aerodrome Forecast
Issued by NWS Jacksonville, FL

Home | Current Version | Previous Version | Text Only | Print | Product List | Glossary On
Versions: 1 2 3 4 5 6 7 8 9 10 11 12 13 14 15 16 17
637
FTUS42 KJAX 271722
TAFJAX
TAF
KJAX 271722Z 2718/2818 VRB05KT P6SM BKN040 BKN250
     FM272100 09008KT P6SM SCT050 BKN250
     FM280100 VRB04KT P6SM FEW025
     FM281000 VRB03KT 4SM BR SCT003
     FM281300 25008KT P6SM SCT025 BKN040 BKN250=

USA.gov is the U.S. government's official web portal to all federal, state and local government web resources and services.